sensor_id;sensor_type;location;lat;lon;timestamp;P1;durP1;ratioP1;P2;durP2;ratioP2
12597;SDS011;6364;53.590;9.956;2023-12-20T00:00:34;32.13;;;3.05;;
12597;SDS011;6364;53.590;9.956;2023-12-20T00:02:59;37.90;;;3.78;;
12597;SDS011;6364;53.590;9.956;2023-12-20T00:05:25;28.42;;;3.30;;
12597;SDS011;6364;53.590;9.956;2023-12-20T00:07:50;41.88;;;3.88;;
12597;SDS011;6364;53.590;9.956;2023-12-20T00:10:15;37.42;;;3.53;;
12597;SDS011;6364;53.590;9.956;2023-12-20T00:12:41;29.88;;;3.45;;
12597;SDS011;6364;53.590;9.956;2023-12-20T00:15:06;26.90;;;3.55;;
12597;SDS011;6364;53.590;9.956;2023-12-20T00:17:32;32.47;;;3.58;;
12597;SDS011;6364;53.590;9.956;2023-12-20T00:19:57;39.17;;;3.65;;
12597;SDS011;6364;53.590;9.956;2023-12-20T00:22:22;28.50;;;3.33;;
12597;SDS011;6364;53.590;9.956;2023-12-20T00:24:48;29.50;;;3.95;;
12597;SDS011;6364;53.590;9.956;2023-12-20T00:27:13;26.10;;;3.45;;
12597;SDS011;6364;53.590;9.956;2023-12-20T00:29:38;30.25;;;3.55;;
12597;SDS011;6364;53.590;9.956;2023-12-20T00:32:04;28.23;;;3.20;;
12597;SDS011;6364;53.590;9.956;2023-12-20T00:34:29;31.30;;;3.50;;
12597;SDS011;6364;53.590;9.956;2023-12-20T00:36:55;24.05;;;3.08;;
12597;SDS011;6364;53.590;9.956;2023-12-20T00:39:20;38.60;;;3.38;;
12597;SDS011;6364;53.590;9.956;2023-12-20T00:41:45;34.20;;;3.30;;
12597;SDS011;6364;53.590;9.956;2023-12-20T00:44:11;22.33;;;2.75;;
12597;SDS011;6364;53.590;9.956;2023-12-20T00:46:36;30.15;;;2.97;;
12597;SDS011;6364;53.590;9.956;2023-12-20T00:49:01;25.95;;;3.17;;
12597;SDS011;6364;53.590;9.956;2023-12-20T00:51:27;27.95;;;2.97;;
12597;SDS011;6364;53.590;9.956;2023-12-20T00:53:52;30.25;;;3.28;;
12597;SDS011;6364;53.590;9.956;2023-12-20T00:56:20;15.18;;;2.03;;
12597;SDS011;6364;53.590;9.956;2023-12-20T00:58:45;29.65;;;2.97;;
12597;SDS011;6364;53.590;9.956;2023-12-20T01:01:11;40.92;;;3.55;;
12597;SDS011;6364;53.590;9.956;2023-12-20T01:03:36;18.73;;;2.88;;
12597;SDS011;6364;53.590;9.956;2023-12-20T01:06:01;26.58;;;3.15;;
12597;SDS011;6364;53.590;9.956;2023-12-20T01:08:27;26.80;;;2.67;;
12597;SDS011;6364;53.590;9.956;2023-12-20T01:10:52;29.42;;;3.33;;
12597;SDS011;6364;53.590;9.956;2023-12-20T01:13:17;28.48;;;3.42;;
12597;SDS011;6364;53.590;9.956;2023-12-20T01:15:43;33.20;;;3.20;;
12597;SDS011;6364;53.590;9.956;2023-12-20T01:18:08;31.23;;;3.45;;
12597;SDS011;6364;53.590;9.956;2023-12-20T01:20:33;26.98;;;3.08;;
12597;SDS011;6364;53.590;9.956;2023-12-20T01:22:59;23.73;;;3.05;;
12597;SDS011;6364;53.590;9.956;2023-12-20T01:25:24;37.58;;;3.05;;
12597;SDS011;6364;53.590;9.956;2023-12-20T01:27:50;23.27;;;3.10;;
12597;SDS011;6364;53.590;9.956;2023-12-20T01:30:15;34.65;;;2.85;;
12597;SDS011;6364;53.590;9.956;2023-12-20T01:32:40;25.20;;;3.28;;
12597;SDS011;6364;53.590;9.956;2023-12-20T01:35:06;22.30;;;2.28;;
12597;SDS011;6364;53.590;9.956;2023-12-20T01:37:31;29.45;;;2.88;;
12597;SDS011;6364;53.590;9.956;2023-12-20T01:39:57;31.55;;;3.78;;
12597;SDS011;6364;53.590;9.956;2023-12-20T01:42:23;27.80;;;3.08;;
12597;SDS011;6364;53.590;9.956;2023-12-20T01:44:49;25.27;;;3.17;;
12597;SDS011;6364;53.590;9.956;2023-12-20T01:47:14;31.90;;;3.63;;
12597;SDS011;6364;53.590;9.956;2023-12-20T01:49:39;25.45;;;2.78;;
12597;SDS011;6364;53.590;9.956;2023-12-20T01:52:05;39.45;;;2.75;;
12597;SDS011;6364;53.590;9.956;2023-12-20T01:54:31;34.17;;;3.13;;
12597;SDS011;6364;53.590;9.956;2023-12-20T01:56:56;29.33;;;3.00;;
12597;SDS011;6364;53.590;9.956;2023-12-20T01:59:22;21.05;;;2.22;;
12597;SDS011;6364;53.590;9.956;2023-12-20T02:01:48;28.55;;;3.03;;
12597;SDS011;6364;53.590;9.956;2023-12-20T02:04:13;31.20;;;3.45;;
12597;SDS011;6364;53.590;9.956;2023-12-20T02:06:38;24.30;;;2.70;;
12597;SDS011;6364;53.590;9.956;2023-12-20T02:09:04;32.13;;;3.22;;
12597;SDS011;6364;53.590;9.956;2023-12-20T02:11:30;25.40;;;3.50;;
12597;SDS011;6364;53.590;9.956;2023-12-20T02:13:56;35.58;;;3.30;;
12597;SDS011;6364;53.590;9.956;2023-12-20T02:16:21;18.98;;;2.58;;
12597;SDS011;6364;53.590;9.956;2023-12-20T02:18:47;17.77;;;2.53;;
12597;SDS011;6364;53.590;9.956;2023-12-20T02:21:12;22.83;;;2.75;;
12597;SDS011;6364;53.590;9.956;2023-12-20T02:23:38;27.52;;;2.92;;
12597;SDS011;6364;53.590;9.956;2023-12-20T02:26:04;35.03;;;3.08;;
12597;SDS011;6364;53.590;9.956;2023-12-20T02:28:29;17.70;;;2.28;;
12597;SDS011;6364;53.590;9.956;2023-12-20T02:30:55;18.27;;;2.33;;
12597;SDS011;6364;53.590;9.956;2023-12-20T02:33:21;24.73;;;2.97;;
12597;SDS011;6364;53.590;9.956;2023-12-20T02:35:46;16.92;;;2.72;;
12597;SDS011;6364;53.590;9.956;2023-12-20T02:38:12;21.58;;;2.83;;
12597;SDS011;6364;53.590;9.956;2023-12-20T02:40:37;23.65;;;2.40;;
12597;SDS011;6364;53.590;9.956;2023-12-20T02:43:03;27.92;;;3.17;;
12597;SDS011;6364;53.590;9.956;2023-12-20T02:45:28;35.35;;;3.13;;
12597;SDS011;6364;53.590;9.956;2023-12-20T02:47:54;21.35;;;3.03;;
12597;SDS011;6364;53.590;9.956;2023-12-20T02:50:19;31.92;;;3.67;;
12597;SDS011;6364;53.590;9.956;2023-12-20T02:52:45;30.35;;;3.13;;
12597;SDS011;6364;53.590;9.956;2023-12-20T02:55:10;25.58;;;3.30;;
12597;SDS011;6364;53.590;9.956;2023-12-20T02:57:36;26.00;;;2.88;;
12597;SDS011;6364;53.590;9.956;2023-12-20T03:00:01;29.65;;;3.40;;
12597;SDS011;6364;53.590;9.956;2023-12-20T03:02:27;25.27;;;2.78;;
12597;SDS011;6364;53.590;9.956;2023-12-20T03:04:52;27.15;;;3.13;;
12597;SDS011;6364;53.590;9.956;2023-12-20T03:07:18;24.13;;;3.28;;
12597;SDS011;6364;53.590;9.956;2023-12-20T03:09:43;25.90;;;2.97;;
12597;SDS011;6364;53.590;9.956;2023-12-20T03:12:08;16.90;;;2.33;;
12597;SDS011;6364;53.590;9.956;2023-12-20T03:14:34;29.00;;;4.03;;
12597;SDS011;6364;53.590;9.956;2023-12-20T03:16:59;20.25;;;2.92;;
12597;SDS011;6364;53.590;9.956;2023-12-20T03:19:24;46.53;;;4.45;;
12597;SDS011;6364;53.590;9.956;2023-12-20T03:21:50;18.30;;;3.15;;
12597;SDS011;6364;53.590;9.956;2023-12-20T03:24:15;25.13;;;3.28;;
12597;SDS011;6364;53.590;9.956;2023-12-20T03:26:40;27.85;;;2.72;;
12597;SDS011;6364;53.590;9.956;2023-12-20T03:29:06;21.45;;;3.30;;
12597;SDS011;6364;53.590;9.956;2023-12-20T03:31:31;23.60;;;3.28;;
12597;SDS011;6364;53.590;9.956;2023-12-20T03:33:56;27.58;;;3.53;;
12597;SDS011;6364;53.590;9.956;2023-12-20T03:36:22;27.02;;;3.08;;
12597;SDS011;6364;53.590;9.956;2023-12-20T03:38:47;23.83;;;3.45;;
12597;SDS011;6364;53.590;9.956;2023-12-20T03:41:13;22.35;;;3.38;;
12597;SDS011;6364;53.590;9.956;2023-12-20T03:43:38;26.35;;;3.13;;
12597;SDS011;6364;53.590;9.956;2023-12-20T03:46:03;25.63;;;3.08;;
12597;SDS011;6364;53.590;9.956;2023-12-20T03:48:29;14.20;;;2.78;;
12597;SDS011;6364;53.590;9.956;2023-12-20T03:50:56;36.75;;;3.28;;
12597;SDS011;6364;53.590;9.956;2023-12-20T03:53:22;19.73;;;2.67;;
12597;SDS011;6364;53.590;9.956;2023-12-20T03:55:47;20.08;;;2.78;;
12597;SDS011;6364;53.590;9.956;2023-12-20T03:58:12;24.90;;;3.00;;
12597;SDS011;6364;53.590;9.956;2023-12-20T04:00:38;23.17;;;3.00;;
12597;SDS011;6364;53.590;9.956;2023-12-20T04:03:04;17.33;;;3.03;;
12597;SDS011;6364;53.590;9.956;2023-12-20T04:05:29;22.80;;;3.67;;
12597;SDS011;6364;53.590;9.956;2023-12-20T04:07:54;15.57;;;2.42;;
12597;SDS011;6364;53.590;9.956;2023-12-20T04:10:20;13.63;;;2.83;;
12597;SDS011;6364;53.590;9.956;2023-12-20T04:12:45;21.02;;;3.30;;
12597;SDS011;6364;53.590;9.956;2023-12-20T04:15:10;23.08;;;2.95;;
12597;SDS011;6364;53.590;9.956;2023-12-20T04:17:37;20.08;;;3.60;;
12597;SDS011;6364;53.590;9.956;2023-12-20T04:20:02;22.95;;;3.25;;
12597;SDS011;6364;53.590;9.956;2023-12-20T04:22:28;14.68;;;2.30;;
12597;SDS011;6364;53.590;9.956;2023-12-20T04:24:53;25.02;;;3.20;;
12597;SDS011;6364;53.590;9.956;2023-12-20T04:27:19;13.50;;;2.42;;
12597;SDS011;6364;53.590;9.956;2023-12-20T04:29:44;32.08;;;3.33;;
12597;SDS011;6364;53.590;9.956;2023-12-20T04:32:09;20.52;;;2.47;;
12597;SDS011;6364;53.590;9.956;2023-12-20T04:34:35;17.75;;;3.05;;
12597;SDS011;6364;53.590;9.956;2023-12-20T04:37:01;19.25;;;2.78;;
12597;SDS011;6364;53.590;9.956;2023-12-20T04:39:26;20.02;;;2.70;;
12597;SDS011;6364;53.590;9.956;2023-12-20T04:41:52;16.88;;;2.53;;
12597;SDS011;6364;53.590;9.956;2023-12-20T04:44:17;26.65;;;3.63;;
12597;SDS011;6364;53.590;9.956;2023-12-20T04:46:43;17.27;;;3.17;;
12597;SDS011;6364;53.590;9.956;2023-12-20T04:49:08;18.15;;;3.20;;
12597;SDS011;6364;53.590;9.956;2023-12-20T04:51:34;21.40;;;3.28;;
12597;SDS011;6364;53.590;9.956;2023-12-20T04:53:59;17.67;;;2.33;;
12597;SDS011;6364;53.590;9.956;2023-12-20T04:56:25;23.25;;;3.00;;
12597;SDS011;6364;53.590;9.956;2023-12-20T04:58:50;19.10;;;2.95;;
12597;SDS011;6364;53.590;9.956;2023-12-20T05:01:16;16.75;;;2.97;;
12597;SDS011;6364;53.590;9.956;2023-12-20T05:03:42;19.90;;;3.17;;
12597;SDS011;6364;53.590;9.956;2023-12-20T05:06:07;19.45;;;2.95;;
12597;SDS011;6364;53.590;9.956;2023-12-20T05:08:32;22.63;;;2.97;;
12597;SDS011;6364;53.590;9.956;2023-12-20T05:10:58;22.00;;;3.28;;
12597;SDS011;6364;53.590;9.956;2023-12-20T05:13:23;16.95;;;3.13;;
12597;SDS011;6364;53.590;9.956;2023-12-20T05:15:48;16.20;;;3.85;;
12597;SDS011;6364;53.590;9.956;2023-12-20T05:18:14;23.88;;;4.18;;
12597;SDS011;6364;53.590;9.956;2023-12-20T05:20:39;14.82;;;2.72;;
12597;SDS011;6364;53.590;9.956;2023-12-20T05:23:05;15.85;;;3.13;;
12597;SDS011;6364;53.590;9.956;2023-12-20T05:25:31;12.05;;;2.28;;
12597;SDS011;6364;53.590;9.956;2023-12-20T05:27:56;23.63;;;3.45;;
12597;SDS011;6364;53.590;9.956;2023-12-20T05:30:22;15.70;;;4.15;;
12597;SDS011;6364;53.590;9.956;2023-12-20T05:32:47;13.10;;;3.25;;
12597;SDS011;6364;53.590;9.956;2023-12-20T05:35:12;13.63;;;3.08;;
12597;SDS011;6364;53.590;9.956;2023-12-20T05:37:38;17.83;;;3.03;;
12597;SDS011;6364;53.590;9.956;2023-12-20T05:40:03;21.02;;;3.40;;
12597;SDS011;6364;53.590;9.956;2023-12-20T05:42:29;19.75;;;3.00;;
12597;SDS011;6364;53.590;9.956;2023-12-20T05:44:55;17.13;;;3.40;;
12597;SDS011;6364;53.590;9.956;2023-12-20T05:47:20;11.90;;;2.78;;
12597;SDS011;6364;53.590;9.956;2023-12-20T05:49:45;26.50;;;3.65;;
12597;SDS011;6364;53.590;9.956;2023-12-20T05:52:11;19.48;;;4.53;;
12597;SDS011;6364;53.590;9.956;2023-12-20T05:54:36;21.55;;;3.60;;
12597;SDS011;6364;53.590;9.956;2023-12-20T05:57:01;25.08;;;3.92;;
12597;SDS011;6364;53.590;9.956;2023-12-20T05:59:27;22.80;;;3.22;;
12597;SDS011;6364;53.590;9.956;2023-12-20T06:01:52;22.50;;;3.42;;
12597;SDS011;6364;53.590;9.956;2023-12-20T06:04:18;30.20;;;3.72;;
12597;SDS011;6364;53.590;9.956;2023-12-20T06:06:43;21.42;;;3.30;;
12597;SDS011;6364;53.590;9.956;2023-12-20T06:09:09;23.08;;;3.00;;
12597;SDS011;6364;53.590;9.956;2023-12-20T06:11:35;18.50;;;3.53;;
12597;SDS011;6364;53.590;9.956;2023-12-20T06:14:00;22.30;;;3.28;;
12597;SDS011;6364;53.590;9.956;2023-12-20T06:16:25;18.67;;;3.42;;
12597;SDS011;6364;53.590;9.956;2023-12-20T06:18:51;25.40;;;3.80;;
12597;SDS011;6364;53.590;9.956;2023-12-20T06:21:16;23.38;;;4.28;;
12597;SDS011;6364;53.590;9.956;2023-12-20T06:23:41;19.48;;;3.25;;
12597;SDS011;6364;53.590;9.956;2023-12-20T06:26:07;20.58;;;3.17;;
12597;SDS011;6364;53.590;9.956;2023-12-20T06:28:32;23.80;;;3.22;;
12597;SDS011;6364;53.590;9.956;2023-12-20T06:30:58;26.35;;;3.45;;
12597;SDS011;6364;53.590;9.956;2023-12-20T06:33:24;27.02;;;3.45;;
12597;SDS011;6364;53.590;9.956;2023-12-20T06:35:49;25.42;;;3.67;;
12597;SDS011;6364;53.590;9.956;2023-12-20T06:38:15;18.83;;;3.40;;
12597;SDS011;6364;53.590;9.956;2023-12-20T06:40:40;27.67;;;4.35;;
12597;SDS011;6364;53.590;9.956;2023-12-20T06:43:05;24.45;;;3.28;;
12597;SDS011;6364;53.590;9.956;2023-12-20T06:45:31;21.10;;;3.38;;
12597;SDS011;6364;53.590;9.956;2023-12-20T06:47:57;18.45;;;3.80;;
12597;SDS011;6364;53.590;9.956;2023-12-20T06:50:23;14.13;;;3.13;;
12597;SDS011;6364;53.590;9.956;2023-12-20T06:52:49;20.08;;;3.53;;
12597;SDS011;6364;53.590;9.956;2023-12-20T06:55:14;16.65;;;3.10;;
12597;SDS011;6364;53.590;9.956;2023-12-20T06:57:39;22.00;;;3.33;;
12597;SDS011;6364;53.590;9.956;2023-12-20T07:00:05;16.38;;;3.53;;
12597;SDS011;6364;53.590;9.956;2023-12-20T07:02:31;20.02;;;3.55;;
12597;SDS011;6364;53.590;9.956;2023-12-20T07:04:57;17.73;;;3.10;;
12597;SDS011;6364;53.590;9.956;2023-12-20T07:07:22;24.95;;;3.35;;
12597;SDS011;6364;53.590;9.956;2023-12-20T07:09:49;20.63;;;3.50;;
12597;SDS011;6364;53.590;9.956;2023-12-20T07:12:14;23.65;;;3.38;;
12597;SDS011;6364;53.590;9.956;2023-12-20T07:14:40;18.15;;;3.03;;
12597;SDS011;6364;53.590;9.956;2023-12-20T07:17:06;26.48;;;3.22;;
12597;SDS011;6364;53.590;9.956;2023-12-20T07:19:36;18.63;;;3.75;;
12597;SDS011;6364;53.590;9.956;2023-12-20T07:22:02;16.17;;;2.92;;
12597;SDS011;6364;53.590;9.956;2023-12-20T07:24:27;22.25;;;3.50;;
12597;SDS011;6364;53.590;9.956;2023-12-20T07:26:53;30.10;;;4.15;;
12597;SDS011;6364;53.590;9.956;2023-12-20T07:29:18;22.77;;;3.45;;
12597;SDS011;6364;53.590;9.956;2023-12-20T07:31:43;20.20;;;3.50;;
12597;SDS011;6364;53.590;9.956;2023-12-20T07:34:09;27.42;;;3.75;;
12597;SDS011;6364;53.590;9.956;2023-12-20T07:36:35;27.08;;;4.38;;
12597;SDS011;6364;53.590;9.956;2023-12-20T07:39:00;22.38;;;3.72;;
12597;SDS011;6364;53.590;9.956;2023-12-20T07:41:25;27.75;;;3.83;;
12597;SDS011;6364;53.590;9.956;2023-12-20T07:43:51;23.27;;;3.75;;
12597;SDS011;6364;53.590;9.956;2023-12-20T07:46:17;20.63;;;3.55;;
12597;SDS011;6364;53.590;9.956;2023-12-20T07:48:44;19.45;;;3.80;;
12597;SDS011;6364;53.590;9.956;2023-12-20T07:51:09;18.85;;;3.55;;
12597;SDS011;6364;53.590;9.956;2023-12-20T07:53:35;18.58;;;2.90;;
12597;SDS011;6364;53.590;9.956;2023-12-20T07:56:00;23.02;;;3.78;;
12597;SDS011;6364;53.590;9.956;2023-12-20T07:58:25;24.13;;;3.80;;
12597;SDS011;6364;53.590;9.956;2023-12-20T08:00:51;23.52;;;4.07;;
12597;SDS011;6364;53.590;9.956;2023-12-20T08:03:16;20.63;;;3.72;;
12597;SDS011;6364;53.590;9.956;2023-12-20T08:05:42;29.73;;;3.78;;
12597;SDS011;6364;53.590;9.956;2023-12-20T08:08:07;26.33;;;3.78;;
12597;SDS011;6364;53.590;9.956;2023-12-20T08:10:32;20.90;;;3.30;;
12597;SDS011;6364;53.590;9.956;2023-12-20T08:12:58;19.10;;;3.13;;
12597;SDS011;6364;53.590;9.956;2023-12-20T08:15:23;22.75;;;4.47;;
12597;SDS011;6364;53.590;9.956;2023-12-20T08:17:48;16.00;;;2.92;;
12597;SDS011;6364;53.590;9.956;2023-12-20T08:20:15;18.90;;;3.60;;
12597;SDS011;6364;53.590;9.956;2023-12-20T08:22:41;29.60;;;3.90;;
12597;SDS011;6364;53.590;9.956;2023-12-20T08:25:07;21.58;;;4.50;;
12597;SDS011;6364;53.590;9.956;2023-12-20T08:27:33;18.33;;;3.58;;
12597;SDS011;6364;53.590;9.956;2023-12-20T08:29:59;28.90;;;3.67;;
12597;SDS011;6364;53.590;9.956;2023-12-20T08:32:27;24.25;;;3.53;;
12597;SDS011;6364;53.590;9.956;2023-12-20T08:34:52;24.92;;;3.67;;
12597;SDS011;6364;53.590;9.956;2023-12-20T08:37:18;21.65;;;3.92;;
12597;SDS011;6364;53.590;9.956;2023-12-20T08:39:43;21.35;;;3.40;;
12597;SDS011;6364;53.590;9.956;2023-12-20T08:42:09;21.73;;;3.45;;
12597;SDS011;6364;53.590;9.956;2023-12-20T08:44:34;21.88;;;3.85;;
12597;SDS011;6364;53.590;9.956;2023-12-20T08:47:00;23.30;;;3.70;;
12597;SDS011;6364;53.590;9.956;2023-12-20T08:49:25;12.90;;;3.85;;
12597;SDS011;6364;53.590;9.956;2023-12-20T08:51:50;18.98;;;3.55;;
12597;SDS011;6364;53.590;9.956;2023-12-20T08:54:16;23.38;;;3.88;;
12597;SDS011;6364;53.590;9.956;2023-12-20T08:56:42;19.20;;;3.47;;
12597;SDS011;6364;53.590;9.956;2023-12-20T08:59:08;21.50;;;3.80;;
12597;SDS011;6364;53.590;9.956;2023-12-20T09:01:34;24.83;;;3.38;;
12597;SDS011;6364;53.590;9.956;2023-12-20T09:04:00;26.23;;;3.47;;
12597;SDS011;6364;53.590;9.956;2023-12-20T09:06:25;14.88;;;2.85;;
12597;SDS011;6364;53.590;9.956;2023-12-20T09:08:51;23.77;;;3.40;;
12597;SDS011;6364;53.590;9.956;2023-12-20T09:11:16;17.48;;;2.75;;
12597;SDS011;6364;53.590;9.956;2023-12-20T09:13:42;14.50;;;2.70;;
12597;SDS011;6364;53.590;9.956;2023-12-20T09:16:09;14.52;;;3.05;;
12597;SDS011;6364;53.590;9.956;2023-12-20T09:18:34;19.58;;;2.58;;
12597;SDS011;6364;53.590;9.956;2023-12-20T09:21:00;13.60;;;2.50;;
12597;SDS011;6364;53.590;9.956;2023-12-20T09:23:25;20.70;;;3.13;;
12597;SDS011;6364;53.590;9.956;2023-12-20T09:25:51;20.98;;;3.17;;
12597;SDS011;6364;53.590;9.956;2023-12-20T09:28:16;6.85;;;1.98;;
12597;SDS011;6364;53.590;9.956;2023-12-20T09:30:41;11.95;;;2.10;;
12597;SDS011;6364;53.590;9.956;2023-12-20T09:33:07;5.47;;;1.30;;
12597;SDS011;6364;53.590;9.956;2023-12-20T09:35:32;7.22;;;1.63;;
12597;SDS011;6364;53.590;9.956;2023-12-20T09:37:58;4.50;;;1.05;;
12597;SDS011;6364;53.590;9.956;2023-12-20T09:40:23;8.50;;;1.35;;
12597;SDS011;6364;53.590;9.956;2023-12-20T09:42:54;9.07;;;1.35;;
12597;SDS011;6364;53.590;9.956;2023-12-20T09:45:25;7.05;;;1.15;;
12597;SDS011;6364;53.590;9.956;2023-12-20T09:47:52;6.97;;;1.10;;
12597;SDS011;6364;53.590;9.956;2023-12-20T09:50:18;6.78;;;1.25;;
12597;SDS011;6364;53.590;9.956;2023-12-20T09:52:51;2.75;;;0.90;;
12597;SDS011;6364;53.590;9.956;2023-12-20T09:55:17;5.03;;;0.63;;
12597;SDS011;6364;53.590;9.956;2023-12-20T09:57:46;6.95;;;1.08;;
12597;SDS011;6364;53.590;9.956;2023-12-20T10:00:13;8.27;;;1.00;;
12597;SDS011;6364;53.590;9.956;2023-12-20T10:02:41;1.83;;;0.40;;
12597;SDS011;6364;53.590;9.956;2023-12-20T10:05:08;7.35;;;0.82;;
12597;SDS011;6364;53.590;9.956;2023-12-20T10:07:41;3.00;;;0.68;;
12597;SDS011;6364;53.590;9.956;2023-12-20T10:10:06;4.28;;;1.00;;
12597;SDS011;6364;53.590;9.956;2023-12-20T10:12:33;2.38;;;0.50;;
12597;SDS011;6364;53.590;9.956;2023-12-20T10:14:59;3.47;;;0.73;;
12597;SDS011;6364;53.590;9.956;2023-12-20T10:17:24;3.28;;;0.70;;
12597;SDS011;6364;53.590;9.956;2023-12-20T10:19:54;2.58;;;0.88;;
12597;SDS011;6364;53.590;9.956;2023-12-20T10:22:19;4.20;;;1.48;;
12597;SDS011;6364;53.590;9.956;2023-12-20T10:24:45;2.08;;;0.80;;
12597;SDS011;6364;53.590;9.956;2023-12-20T10:27:11;2.08;;;0.50;;
12597;SDS011;6364;53.590;9.956;2023-12-20T10:29:37;3.28;;;1.00;;
12597;SDS011;6364;53.590;9.956;2023-12-20T10:34:52;4.63;;;0.75;;
12597;SDS011;6364;53.590;9.956;2023-12-20T10:37:18;2.25;;;0.65;;
12597;SDS011;6364;53.590;9.956;2023-12-20T10:39:43;5.32;;;0.90;;
12597;SDS011;6364;53.590;9.956;2023-12-20T10:42:12;5.65;;;0.68;;
12597;SDS011;6364;53.590;9.956;2023-12-20T10:44:38;3.85;;;0.70;;
12597;SDS011;6364;53.590;9.956;2023-12-20T10:47:04;6.50;;;1.00;;
12597;SDS011;6364;53.590;9.956;2023-12-20T10:49:30;7.70;;;0.90;;
12597;SDS011;6364;53.590;9.956;2023-12-20T10:51:56;11.32;;;1.13;;
12597;SDS011;6364;53.590;9.956;2023-12-20T10:54:24;7.60;;;1.83;;
12597;SDS011;6364;53.590;9.956;2023-12-20T10:56:50;10.85;;;1.40;;
12597;SDS011;6364;53.590;9.956;2023-12-20T10:59:17;5.50;;;1.30;;
12597;SDS011;6364;53.590;9.956;2023-12-20T11:01:44;7.45;;;1.80;;
12597;SDS011;6364;53.590;9.956;2023-12-20T11:04:10;5.07;;;1.25;;
12597;SDS011;6364;53.590;9.956;2023-12-20T11:14:49;13.25;;;1.70;;
12597;SDS011;6364;53.590;9.956;2023-12-20T11:17:16;9.77;;;1.75;;
12597;SDS011;6364;53.590;9.956;2023-12-20T11:22:17;10.73;;;1.33;;
12597;SDS011;6364;53.590;9.956;2023-12-20T11:24:44;6.22;;;1.23;;
12597;SDS011;6364;53.590;9.956;2023-12-20T11:27:12;13.57;;;2.22;;
12597;SDS011;6364;53.590;9.956;2023-12-20T11:29:38;15.77;;;2.00;;
12597;SDS011;6364;53.590;9.956;2023-12-20T11:32:49;11.75;;;2.03;;
12597;SDS011;6364;53.590;9.956;2023-12-20T11:35:38;5.90;;;1.52;;
12597;SDS011;6364;53.590;9.956;2023-12-20T11:37:39;8.23;;;1.48;;
12597;SDS011;6364;53.590;9.956;2023-12-20T11:40:11;6.60;;;1.48;;
12597;SDS011;6364;53.590;9.956;2023-12-20T11:42:44;12.13;;;1.65;;
12597;SDS011;6364;53.590;9.956;2023-12-20T11:47:36;12.73;;;2.13;;
12597;SDS011;6364;53.590;9.956;2023-12-20T11:50:02;11.05;;;2.03;;
12597;SDS011;6364;53.590;9.956;2023-12-20T11:52:29;11.48;;;1.98;;
12597;SDS011;6364;53.590;9.956;2023-12-20T11:54:55;25.58;;;3.88;;
12597;SDS011;6364;53.590;9.956;2023-12-20T11:57:20;19.75;;;3.40;;
12597;SDS011;6364;53.590;9.956;2023-12-20T11:59:45;19.65;;;2.25;;
12597;SDS011;6364;53.590;9.956;2023-12-20T12:02:14;14.07;;;2.65;;
12597;SDS011;6364;53.590;9.956;2023-12-20T12:04:43;12.23;;;2.00;;
12597;SDS011;6364;53.590;9.956;2023-12-20T12:07:08;9.48;;;2.08;;
12597;SDS011;6364;53.590;9.956;2023-12-20T12:09:34;21.70;;;3.58;;
12597;SDS011;6364;53.590;9.956;2023-12-20T12:11:59;9.90;;;1.85;;
12597;SDS011;6364;53.590;9.956;2023-12-20T12:14:25;18.13;;;2.72;;
12597;SDS011;6364;53.590;9.956;2023-12-20T12:16:50;15.95;;;3.30;;
12597;SDS011;6364;53.590;9.956;2023-12-20T12:19:24;24.40;;;3.10;;
12597;SDS011;6364;53.590;9.956;2023-12-20T12:22:07;14.68;;;2.60;;
12597;SDS011;6364;53.590;9.956;2023-12-20T12:27:01;21.73;;;3.80;;
12597;SDS011;6364;53.590;9.956;2023-12-20T12:29:27;20.98;;;3.60;;
12597;SDS011;6364;53.590;9.956;2023-12-20T12:31:52;18.15;;;2.78;;
12597;SDS011;6364;53.590;9.956;2023-12-20T12:34:18;12.90;;;2.60;;
12597;SDS011;6364;53.590;9.956;2023-12-20T12:36:43;15.80;;;3.42;;
12597;SDS011;6364;53.590;9.956;2023-12-20T12:39:12;14.32;;;2.80;;
12597;SDS011;6364;53.590;9.956;2023-12-20T12:41:40;16.98;;;3.40;;
12597;SDS011;6364;53.590;9.956;2023-12-20T12:44:05;16.60;;;3.22;;
12597;SDS011;6364;53.590;9.956;2023-12-20T12:46:31;16.02;;;3.20;;
12597;SDS011;6364;53.590;9.956;2023-12-20T12:48:57;21.30;;;3.30;;
12597;SDS011;6364;53.590;9.956;2023-12-20T12:51:23;16.23;;;3.45;;
12597;SDS011;6364;53.590;9.956;2023-12-20T12:53:48;21.52;;;3.30;;
12597;SDS011;6364;53.590;9.956;2023-12-20T12:56:15;13.00;;;2.47;;
12597;SDS011;6364;53.590;9.956;2023-12-20T12:58:41;17.77;;;3.35;;
12597;SDS011;6364;53.590;9.956;2023-12-20T13:01:06;17.70;;;3.00;;
12597;SDS011;6364;53.590;9.956;2023-12-20T13:03:32;16.70;;;2.60;;
12597;SDS011;6364;53.590;9.956;2023-12-20T13:05:57;22.42;;;2.78;;
12597;SDS011;6364;53.590;9.956;2023-12-20T13:08:22;16.88;;;3.38;;
12597;SDS011;6364;53.590;9.956;2023-12-20T13:10:48;18.83;;;3.80;;
12597;SDS011;6364;53.590;9.956;2023-12-20T13:13:14;18.48;;;3.28;;
12597;SDS011;6364;53.590;9.956;2023-12-20T13:15:39;21.67;;;3.15;;
12597;SDS011;6364;53.590;9.956;2023-12-20T13:18:05;19.20;;;3.53;;
12597;SDS011;6364;53.590;9.956;2023-12-20T13:20:31;15.68;;;3.63;;
12597;SDS011;6364;53.590;9.956;2023-12-20T13:22:58;21.90;;;3.17;;
12597;SDS011;6364;53.590;9.956;2023-12-20T13:25:24;16.90;;;2.95;;
12597;SDS011;6364;53.590;9.956;2023-12-20T13:27:49;22.40;;;3.40;;
12597;SDS011;6364;53.590;9.956;2023-12-20T13:30:16;27.30;;;4.28;;
12597;SDS011;6364;53.590;9.956;2023-12-20T13:32:42;25.80;;;3.47;;
12597;SDS011;6364;53.590;9.956;2023-12-20T13:35:07;25.27;;;4.30;;
12597;SDS011;6364;53.590;9.956;2023-12-20T13:37:33;26.75;;;3.60;;
12597;SDS011;6364;53.590;9.956;2023-12-20T13:39:58;20.60;;;3.65;;
12597;SDS011;6364;53.590;9.956;2023-12-20T13:42:24;28.35;;;4.18;;
12597;SDS011;6364;53.590;9.956;2023-12-20T13:44:51;25.40;;;3.78;;
12597;SDS011;6364;53.590;9.956;2023-12-20T13:47:16;20.55;;;3.67;;
12597;SDS011;6364;53.590;9.956;2023-12-20T13:49:42;26.98;;;4.85;;
12597;SDS011;6364;53.590;9.956;2023-12-20T13:52:07;34.20;;;5.05;;
12597;SDS011;6364;53.590;9.956;2023-12-20T13:54:32;27.23;;;3.83;;
12597;SDS011;6364;53.590;9.956;2023-12-20T13:56:58;38.50;;;5.15;;
12597;SDS011;6364;53.590;9.956;2023-12-20T13:59:23;26.90;;;4.38;;
12597;SDS011;6364;53.590;9.956;2023-12-20T14:01:49;24.45;;;4.65;;
12597;SDS011;6364;53.590;9.956;2023-12-20T14:04:15;27.90;;;5.90;;
12597;SDS011;6364;53.590;9.956;2023-12-20T14:06:40;27.63;;;4.72;;
12597;SDS011;6364;53.590;9.956;2023-12-20T14:09:06;27.98;;;4.75;;
12597;SDS011;6364;53.590;9.956;2023-12-20T14:11:31;28.80;;;5.03;;
12597;SDS011;6364;53.590;9.956;2023-12-20T14:13:56;24.08;;;6.03;;
12597;SDS011;6364;53.590;9.956;2023-12-20T14:16:26;30.63;;;5.53;;
12597;SDS011;6364;53.590;9.956;2023-12-20T14:18:51;21.63;;;4.53;;
12597;SDS011;6364;53.590;9.956;2023-12-20T14:21:22;33.03;;;5.50;;
12597;SDS011;6364;53.590;9.956;2023-12-20T14:23:48;26.92;;;5.90;;
12597;SDS011;6364;53.590;9.956;2023-12-20T14:26:14;28.65;;;5.68;;
12597;SDS011;6364;53.590;9.956;2023-12-20T14:28:43;28.10;;;5.03;;
12597;SDS011;6364;53.590;9.956;2023-12-20T14:31:09;27.73;;;5.20;;
12597;SDS011;6364;53.590;9.956;2023-12-20T14:33:35;25.77;;;4.70;;
12597;SDS011;6364;53.590;9.956;2023-12-20T14:36:02;26.00;;;5.30;;
12597;SDS011;6364;53.590;9.956;2023-12-20T14:38:30;23.83;;;4.40;;
12597;SDS011;6364;53.590;9.956;2023-12-20T14:40:58;26.60;;;4.95;;
12597;SDS011;6364;53.590;9.956;2023-12-20T14:43:25;32.65;;;5.10;;
12597;SDS011;6364;53.590;9.956;2023-12-20T14:45:51;24.77;;;4.40;;
12597;SDS011;6364;53.590;9.956;2023-12-20T14:48:16;22.45;;;4.13;;
12597;SDS011;6364;53.590;9.956;2023-12-20T14:50:43;25.02;;;4.63;;
12597;SDS011;6364;53.590;9.956;2023-12-20T14:53:09;21.08;;;4.57;;
12597;SDS011;6364;53.590;9.956;2023-12-20T14:55:34;18.17;;;3.50;;
12597;SDS011;6364;53.590;9.956;2023-12-20T14:58:00;26.10;;;4.78;;
12597;SDS011;6364;53.590;9.956;2023-12-20T15:00:25;20.30;;;3.90;;